createdAt,value
2024-04-13T00:01:26.397Z,17.05
2024-04-13T00:04:29.834Z,15.20
2024-04-13T00:07:33.919Z,15.63
2024-04-13T00:10:38.277Z,15.35
2024-04-13T00:13:41.390Z,15.32
2024-04-13T00:16:45.375Z,16.08
2024-04-13T00:19:55.170Z,17.98
2024-04-13T00:22:58.706Z,20.67
2024-04-13T00:26:01.857Z,21.00
2024-04-13T00:29:09.494Z,21.13
2024-04-13T00:32:13.060Z,19.52
2024-04-13T00:35:16.945Z,15.82
2024-04-13T00:38:20.917Z,17.52
2024-04-13T00:41:24.174Z,18.55
2024-04-13T00:44:29.029Z,18.83
2024-04-13T00:47:39.192Z,16.23
2024-04-13T00:50:45.400Z,18.15
2024-04-13T00:53:49.030Z,15.15
2024-04-13T00:56:58.305Z,18.65
2024-04-13T01:00:02.102Z,22.77
2024-04-13T01:03:06.764Z,20.52
2024-04-13T01:06:11.754Z,22.23
2024-04-13T01:09:16.355Z,21.85
2024-04-13T01:12:20.130Z,24.00
2024-04-13T01:15:28.331Z,22.80
2024-04-13T01:18:31.962Z,20.20
2024-04-13T01:21:37.040Z,23.35
2024-04-13T01:24:42.305Z,22.40
2024-04-13T01:27:45.759Z,21.45
2024-04-13T01:30:49.731Z,17.60
2024-04-13T01:33:56.404Z,15.88
2024-04-13T01:36:59.616Z,13.55
2024-04-13T01:40:03.143Z,12.00
2024-04-13T01:43:06.332Z,13.88
2024-04-13T01:46:10.133Z,12.15
2024-04-13T01:49:16.864Z,11.43
2024-04-13T01:52:22.341Z,10.00
2024-04-13T01:55:25.628Z,8.60
2024-04-13T01:58:35.199Z,11.00
2024-04-13T02:01:41.710Z,12.13
2024-04-13T02:04:47.082Z,12.25
2024-04-13T02:07:50.268Z,11.55
2024-04-13T02:10:57.054Z,11.23
2024-04-13T02:14:01.057Z,13.45
2024-04-13T02:17:05.071Z,12.07
2024-04-13T02:20:08.462Z,11.35
2024-04-13T02:23:14.396Z,11.05
2024-04-13T02:26:17.715Z,10.48
2024-04-13T02:29:21.765Z,10.90
2024-04-13T02:32:25.868Z,13.65
2024-04-13T02:35:29.836Z,16.40
2024-04-13T02:38:34.277Z,19.88
2024-04-13T02:41:38.174Z,21.70
2024-04-13T02:44:43.442Z,23.15
2024-04-13T02:47:50.725Z,24.45
2024-04-13T02:50:57.828Z,27.52
2024-04-13T02:54:01.505Z,26.42
2024-04-13T02:57:06.757Z,22.70
2024-04-13T03:00:11.056Z,24.83
2024-04-13T03:03:15.094Z,23.30
2024-04-13T03:06:20.131Z,21.55
2024-04-13T03:09:23.375Z,24.35
2024-04-13T03:12:27.131Z,20.35
2024-04-13T03:15:30.675Z,19.55
2024-04-13T03:18:35.745Z,19.77
2024-04-13T03:21:39.217Z,22.17
2024-04-13T03:24:43.547Z,19.65
2024-04-13T03:27:49.612Z,19.95
2024-04-13T03:30:55.697Z,20.02
2024-04-13T03:34:04.712Z,18.90
2024-04-13T03:37:10.708Z,21.85
2024-04-13T03:40:16.250Z,17.95
2024-04-13T03:43:20.011Z,13.52
2024-04-13T03:46:23.234Z,11.77
2024-04-13T03:49:26.914Z,6.20
2024-04-13T03:52:33.388Z,3.67
2024-04-13T03:55:37.014Z,3.47
2024-04-13T03:58:40.246Z,3.08
2024-04-13T04:01:46.888Z,3.53
2024-04-13T04:04:50.061Z,4.03
2024-04-13T04:07:57.883Z,3.90
2024-04-13T04:11:01.811Z,4.05
2024-04-13T04:14:07.918Z,4.80
2024-04-13T04:17:11.201Z,5.72
2024-04-13T04:20:16.308Z,2.72
2024-04-13T04:23:23.056Z,4.78
2024-04-13T04:26:26.876Z,3.20
2024-04-13T04:29:30.022Z,3.90
2024-04-13T04:32:34.333Z,3.33
2024-04-13T04:35:39.212Z,7.68
2024-04-13T04:38:42.703Z,3.47
2024-04-13T04:41:46.358Z,4.13
2024-04-13T04:44:50.169Z,4.03
2024-04-13T04:47:57.157Z,3.10
2024-04-13T04:54:04.450Z,3.13
2024-04-13T04:57:08.303Z,2.75
2024-04-13T05:00:16.428Z,2.80
2024-04-13T05:03:21.039Z,10.38
2024-04-13T05:06:25.022Z,12.98
2024-04-13T05:09:29.232Z,3.33
2024-04-13T05:12:33.095Z,3.45
2024-04-13T05:15:38.091Z,3.30
2024-04-13T05:18:41.445Z,2.20
2024-04-13T05:21:45.374Z,3.13
2024-04-13T05:24:48.689Z,2.13
2024-04-13T05:27:52.453Z,2.53
2024-04-13T05:31:02.907Z,1.70
2024-04-13T05:34:07.252Z,1.88
2024-04-13T05:37:11.133Z,1.90
2024-04-13T05:40:15.588Z,1.60
2024-04-13T05:43:18.919Z,2.15
2024-04-13T05:46:22.573Z,1.80
2024-04-13T05:49:25.951Z,1.88
2024-04-13T05:52:29.634Z,1.88
2024-04-13T05:55:33.497Z,2.00
2024-04-13T05:58:38.236Z,1.83
2024-04-13T06:01:43.844Z,2.30
2024-04-13T06:04:48.200Z,2.08
2024-04-13T06:07:51.666Z,1.80
2024-04-13T06:10:57.839Z,1.95
2024-04-13T06:17:06.880Z,3.10
2024-04-13T06:20:10.615Z,1.65
2024-04-13T06:23:17.571Z,2.70
2024-04-13T06:26:21.360Z,2.55
2024-04-13T06:29:25.760Z,2.38
2024-04-13T06:32:29.732Z,2.60
2024-04-13T06:35:34.649Z,1.70
2024-04-13T06:38:39.886Z,1.90
2024-04-13T06:41:44.561Z,2.35
2024-04-13T06:44:50.654Z,2.13
2024-04-13T06:47:59.424Z,3.53
2024-04-13T06:51:04.183Z,2.50
2024-04-13T06:54:10.658Z,2.08
2024-04-13T06:57:14.877Z,2.00
2024-04-13T07:00:19.438Z,1.70
2024-04-13T07:03:27.093Z,1.52
2024-04-13T07:06:34.814Z,2.17
2024-04-13T07:09:39.109Z,1.90
2024-04-13T07:12:49.360Z,1.70
2024-04-13T07:15:53.445Z,1.70
2024-04-13T07:19:00.849Z,1.30
2024-04-13T07:22:04.840Z,1.40
2024-04-13T07:25:11.377Z,1.85
2024-04-13T07:28:15.489Z,1.40
2024-04-13T07:31:19.272Z,1.45
2024-04-13T07:34:27.046Z,1.55
2024-04-13T07:37:30.675Z,3.78
2024-04-13T07:40:36.823Z,1.08
2024-04-13T07:43:43.013Z,1.83
2024-04-13T07:46:46.154Z,1.00
2024-04-13T07:49:49.940Z,1.30
2024-04-13T07:52:53.959Z,1.20
2024-04-13T07:56:04.139Z,1.30
2024-04-13T07:59:07.687Z,1.45
2024-04-13T08:02:14.273Z,1.40
2024-04-13T08:05:18.714Z,1.10
2024-04-13T08:08:28.345Z,1.08
2024-04-13T08:11:31.582Z,2.05
2024-04-13T08:14:38.946Z,1.42
2024-04-13T08:17:43.391Z,3.72
2024-04-13T08:20:47.583Z,3.42
2024-04-13T08:23:51.528Z,2.03
2024-04-13T08:26:55.353Z,2.05
2024-04-13T08:30:02.073Z,1.83
2024-04-13T08:33:08.602Z,1.90
2024-04-13T08:36:12.219Z,1.13
2024-04-13T08:39:16.395Z,2.28
2024-04-13T08:42:33.200Z,1.55
2024-04-13T08:45:37.857Z,1.77
2024-04-13T08:48:42.298Z,1.33
2024-04-13T08:51:49.320Z,3.75
2024-04-13T08:54:52.864Z,1.58
2024-04-13T08:58:00.007Z,1.92
2024-04-13T09:01:04.754Z,1.55
2024-04-13T09:04:12.774Z,1.85
2024-04-13T09:07:17.028Z,2.90
2024-04-13T09:10:21.316Z,2.30
2024-04-13T09:13:25.199Z,2.20
2024-04-13T09:16:30.601Z,2.10
2024-04-13T09:19:40.130Z,1.95
2024-04-13T09:22:45.777Z,3.13
2024-04-13T09:26:08.286Z,2.22
2024-04-13T09:29:16.605Z,2.28
2024-04-13T09:32:27.850Z,3.38
2024-04-13T09:35:32.886Z,5.07
2024-04-13T09:38:36.247Z,2.13
2024-04-13T09:41:41.135Z,3.78
2024-04-13T09:44:47.319Z,5.90
2024-04-13T09:48:03.088Z,6.25
2024-04-13T09:51:07.234Z,5.75
2024-04-13T09:54:12.053Z,4.32
2024-04-13T09:57:16.906Z,7.30
2024-04-13T10:00:24.127Z,6.30
2024-04-13T10:03:29.735Z,5.55
2024-04-13T10:06:36.830Z,4.22
2024-04-13T10:12:49.555Z,4.20
2024-04-13T10:15:53.608Z,4.60
2024-04-13T10:19:00.283Z,4.53
2024-04-13T10:22:15.170Z,5.05
2024-04-13T10:25:32.510Z,4.20
2024-04-13T10:28:36.873Z,3.20
2024-04-13T10:31:50.369Z,2.58
2024-04-13T10:35:07.893Z,3.90
2024-04-13T10:38:20.874Z,3.38
2024-04-13T10:44:38.727Z,3.60
2024-04-13T10:47:43.463Z,4.13
2024-04-13T10:50:49.004Z,3.22
2024-04-13T10:54:04.787Z,3.05
2024-04-13T10:57:16.602Z,3.67
2024-04-13T11:00:23.037Z,4.10
2024-04-13T11:03:31.440Z,3.03
2024-04-13T11:06:36.113Z,3.13
2024-04-13T11:09:39.921Z,3.03
2024-04-13T11:12:45.159Z,2.90
2024-04-13T11:15:49.729Z,2.45
2024-04-13T11:18:57.720Z,1.80
2024-04-13T11:22:05.188Z,1.67
2024-04-13T11:25:12.152Z,1.95
2024-04-13T11:28:17.165Z,1.80
2024-04-13T11:31:24.269Z,1.52
2024-04-13T11:37:32.129Z,2.00
2024-04-13T11:40:37.597Z,1.85
2024-04-13T11:43:41.379Z,1.63
2024-04-13T11:46:45.361Z,1.30
2024-04-13T11:49:50.411Z,1.33
2024-04-13T11:52:55.975Z,1.80
2024-04-13T11:56:03.318Z,1.20
2024-04-13T11:59:06.476Z,1.85
2024-04-13T12:02:13.049Z,1.60
2024-04-13T12:05:20.405Z,1.60
2024-04-13T12:08:26.509Z,2.25
2024-04-13T12:11:35.722Z,1.90
2024-04-13T12:14:49.831Z,1.88
2024-04-13T12:17:58.558Z,1.65
2024-04-13T12:21:04.623Z,1.92
2024-04-13T12:24:10.480Z,2.00
2024-04-13T12:27:15.466Z,1.45
2024-04-13T12:30:19.581Z,1.52
2024-04-13T12:33:26.759Z,1.20
2024-04-13T12:36:31.162Z,1.60
2024-04-13T12:39:35.673Z,1.50
2024-04-13T12:42:39.543Z,1.40
2024-04-13T12:45:43.323Z,1.83
2024-04-13T12:48:50.110Z,1.23
2024-04-13T12:51:54.686Z,1.95
2024-04-13T12:54:58.508Z,1.38
2024-04-13T12:58:06.271Z,1.60
2024-04-13T13:01:10.282Z,2.25
2024-04-13T13:04:14.117Z,2.10
2024-04-13T13:07:18.253Z,2.33
2024-04-13T13:10:21.902Z,1.80
2024-04-13T13:13:26.847Z,1.95
2024-04-13T13:16:30.686Z,2.45
2024-04-13T13:19:34.881Z,2.50
2024-04-13T13:22:38.499Z,1.85
2024-04-13T13:25:44.731Z,2.45
2024-04-13T13:28:56.326Z,2.75
2024-04-13T13:32:09.796Z,2.85
2024-04-13T13:35:13.815Z,3.47
2024-04-13T13:38:17.793Z,19.77
2024-04-13T13:41:25.407Z,3.22
2024-04-13T13:47:33.138Z,3.20
2024-04-13T13:50:37.086Z,3.33
2024-04-13T13:53:41.507Z,3.22
2024-04-13T13:56:47.715Z,3.35
2024-04-13T13:59:52.016Z,3.58
2024-04-13T14:02:55.812Z,2.63
2024-04-13T14:06:07.756Z,2.47
2024-04-13T14:09:15.524Z,3.33
2024-04-13T14:12:20.007Z,1.95
2024-04-13T14:15:24.619Z,2.97
2024-04-13T14:18:29.092Z,2.90
2024-04-13T14:21:37.658Z,2.92
2024-04-13T14:24:42.110Z,3.85
2024-04-13T14:27:45.672Z,3.10
2024-04-13T14:30:50.050Z,3.03
2024-04-13T14:33:54.821Z,3.88
2024-04-13T14:36:59.729Z,4.40
2024-04-13T14:40:08.122Z,4.22
2024-04-13T14:43:11.815Z,2.55
2024-04-13T14:46:14.949Z,3.92
2024-04-13T14:49:18.778Z,3.97
2024-04-13T14:52:24.796Z,4.28
2024-04-13T14:55:28.380Z,4.88
2024-04-13T14:58:32.104Z,4.55
2024-04-13T15:01:38.311Z,4.22
2024-04-13T15:04:41.660Z,3.47
2024-04-13T15:07:46.150Z,3.67
2024-04-13T15:10:50.386Z,3.20
2024-04-13T15:13:54.056Z,3.00
2024-04-13T15:16:57.910Z,3.40
2024-04-13T15:20:04.549Z,4.80
2024-04-13T15:23:09.059Z,5.03
2024-04-13T15:26:13.475Z,3.38
2024-04-13T15:29:16.734Z,4.05
2024-04-13T15:32:21.013Z,2.90
2024-04-13T15:35:24.140Z,4.90
2024-04-13T15:38:28.405Z,4.28
2024-04-13T15:41:32.253Z,5.45
2024-04-13T15:44:36.043Z,4.70
2024-04-13T15:47:39.896Z,5.00
2024-04-13T15:50:44.016Z,5.35
2024-04-13T15:53:47.789Z,5.15
2024-04-13T15:56:51.358Z,5.40
2024-04-13T16:00:01.005Z,4.95
2024-04-13T16:03:11.801Z,5.55
2024-04-13T16:06:14.915Z,4.22
2024-04-13T16:09:19.112Z,3.58
2024-04-13T16:12:22.297Z,3.80
2024-04-13T16:15:25.922Z,3.38
2024-04-13T16:18:29.738Z,3.53
2024-04-13T16:21:33.232Z,3.22
2024-04-13T16:24:37.127Z,2.63
2024-04-13T16:27:44.197Z,2.47
2024-04-13T16:30:47.675Z,2.90
2024-04-13T16:33:51.442Z,2.85
2024-04-13T16:36:58.125Z,2.13
2024-04-13T16:40:01.450Z,1.90
2024-04-13T16:43:07.162Z,2.63
2024-04-13T16:46:10.377Z,2.80
2024-04-13T16:49:13.517Z,2.50
2024-04-13T16:52:17.511Z,3.55
2024-04-13T16:55:20.596Z,3.50
2024-04-13T16:58:25.765Z,3.35
2024-04-13T17:01:29.549Z,2.33
2024-04-13T17:04:32.810Z,3.42
2024-04-13T17:07:39.922Z,2.35
2024-04-13T17:10:43.146Z,1.92
2024-04-13T17:13:47.046Z,1.90
2024-04-13T17:16:50.216Z,2.75
2024-04-13T17:19:54.185Z,1.77
2024-04-13T17:23:00.158Z,3.42
2024-04-13T17:26:07.405Z,2.22
2024-04-13T17:29:10.597Z,2.60
2024-04-13T17:32:13.833Z,2.97
2024-04-13T17:35:17.891Z,2.30
2024-04-13T17:38:21.135Z,2.63
2024-04-13T17:41:25.810Z,2.58
2024-04-13T17:44:29.738Z,2.28
2024-04-13T17:47:34.219Z,2.78
2024-04-13T17:50:38.991Z,1.88
2024-04-13T17:53:43.127Z,2.25
2024-04-13T17:56:46.301Z,2.47
2024-04-13T17:59:49.767Z,2.10
2024-04-13T18:02:53.788Z,2.13
2024-04-13T18:05:56.911Z,1.52
2024-04-13T18:09:01.031Z,1.85
2024-04-13T18:12:07.655Z,3.17
2024-04-13T18:15:11.510Z,1.75
2024-04-13T18:18:14.686Z,2.20
2024-04-13T18:21:17.896Z,2.22
2024-04-13T18:24:22.435Z,2.03
2024-04-13T18:27:25.501Z,2.35
2024-04-13T18:30:29.434Z,2.00
2024-04-13T18:33:32.798Z,2.05
2024-04-13T18:36:36.694Z,2.75
2024-04-13T18:39:40.221Z,2.60
2024-04-13T18:42:44.725Z,2.63
2024-04-13T18:45:47.903Z,1.75
2024-04-13T18:48:51.273Z,1.85
2024-04-13T18:51:59.124Z,2.42
2024-04-13T18:55:05.371Z,2.38
2024-04-13T18:58:09.295Z,2.80
2024-04-13T19:01:12.729Z,3.47
2024-04-13T19:04:16.521Z,2.80
2024-04-13T19:07:19.668Z,2.60
2024-04-13T19:10:25.526Z,1.90
2024-04-13T19:13:29.091Z,1.55
2024-04-13T19:16:32.749Z,2.50
2024-04-13T19:19:36.426Z,2.30
2024-04-13T19:22:39.581Z,2.45
2024-04-13T19:25:44.026Z,2.30
2024-04-13T19:28:47.386Z,3.47
2024-04-13T19:31:50.543Z,1.88
2024-04-13T19:34:54.420Z,2.42
2024-04-13T19:37:58.533Z,2.30
2024-04-13T19:41:02.738Z,2.75
2024-04-13T19:44:09.032Z,3.00
2024-04-13T19:47:15.956Z,2.80
2024-04-13T19:50:20.025Z,2.38
2024-04-13T19:53:23.116Z,1.52
2024-04-13T19:56:26.808Z,2.00
2024-04-13T19:59:33.811Z,1.67
2024-04-13T20:02:37.053Z,4.05
2024-04-13T20:05:42.045Z,3.28
2024-04-13T20:08:46.424Z,2.35
2024-04-13T20:11:50.295Z,1.77
2024-04-13T20:15:12.825Z,1.75
2024-04-13T20:18:35.386Z,2.70
2024-04-13T20:21:40.197Z,1.67
2024-04-13T20:24:43.843Z,2.72
2024-04-13T20:27:47.858Z,1.85
2024-04-13T20:30:54.872Z,1.80
2024-04-13T20:33:58.896Z,2.15
2024-04-13T20:37:02.385Z,2.30
2024-04-13T20:40:10.125Z,2.35
2024-04-13T20:43:14.547Z,1.70
2024-04-13T20:46:18.822Z,2.42
2024-04-13T20:49:22.005Z,2.40
2024-04-13T20:52:26.074Z,2.33
2024-04-13T20:55:30.104Z,2.75
2024-04-13T20:58:33.866Z,1.90
2024-04-13T21:01:37.852Z,1.75
2024-04-13T21:04:42.250Z,1.58
2024-04-13T21:07:45.633Z,2.38
2024-04-13T21:10:50.103Z,2.05
2024-04-13T21:13:56.661Z,1.77
2024-04-13T21:16:59.972Z,2.00
2024-04-13T21:20:03.530Z,3.10
2024-04-13T21:23:08.872Z,2.13
2024-04-13T21:27:01.642Z,1.80
2024-04-13T21:30:14.279Z,1.92
2024-04-13T21:33:17.641Z,2.10
2024-04-13T21:36:20.880Z,1.90
2024-04-13T21:39:25.774Z,2.28
2024-04-13T21:42:29.885Z,2.20
2024-04-13T21:45:34.202Z,2.25
2024-04-13T21:48:37.899Z,2.60
2024-04-13T21:51:41.838Z,3.90
2024-04-13T21:54:45.275Z,2.72
2024-04-13T21:57:48.487Z,2.65
2024-04-13T22:00:51.678Z,1.98
2024-04-13T22:03:55.743Z,2.10
2024-04-13T22:07:00.185Z,2.10
2024-04-13T22:10:04.731Z,2.17
2024-04-13T22:13:11.164Z,2.72
2024-04-13T22:16:15.107Z,2.40
2024-04-13T22:19:18.310Z,2.65
2024-04-13T22:22:23.402Z,2.72
2024-04-13T22:25:29.431Z,2.33
2024-04-13T22:28:33.324Z,2.25
2024-04-13T22:31:41.532Z,2.38
2024-04-13T22:34:45.467Z,2.03
2024-04-13T22:37:50.005Z,2.58
2024-04-13T22:40:53.506Z,2.17
2024-04-13T22:43:57.413Z,2.00
2024-04-13T22:47:01.243Z,1.50
2024-04-13T22:50:05.779Z,1.77
2024-04-13T22:53:12.608Z,2.28
2024-04-13T22:56:16.856Z,2.30
2024-04-13T22:59:20.072Z,2.30
2024-04-13T23:02:26.275Z,1.70
2024-04-13T23:05:29.431Z,1.92
2024-04-13T23:08:32.891Z,2.03
2024-04-13T23:11:37.888Z,1.40
2024-04-13T23:14:41.552Z,1.75
2024-04-13T23:17:45.692Z,1.48
2024-04-13T23:20:50.167Z,1.83
2024-04-13T23:23:53.368Z,2.05
2024-04-13T23:26:56.508Z,1.25
2024-04-13T23:30:00.432Z,2.15
2024-04-13T23:33:04.634Z,1.52
2024-04-13T23:36:10.283Z,1.02
2024-04-13T23:39:13.935Z,1.30
2024-04-13T23:42:17.747Z,1.58
2024-04-13T23:45:21.880Z,2.40
2024-04-13T23:48:25.436Z,2.22
2024-04-13T23:51:28.608Z,1.80
2024-04-13T23:54:32.885Z,1.92
2024-04-13T23:57:38.505Z,1.90
